createdAt,value
2022-10-13T14:48:02.386Z,15.32
2022-10-13T14:50:30.618Z,16.65
2022-10-13T14:52:57.881Z,14.73
2022-10-13T14:55:25.654Z,14.73
2022-10-13T14:57:53.036Z,15.02
2022-10-13T15:00:20.558Z,16.38
2022-10-13T15:02:47.817Z,15.25
2022-10-13T15:05:15.115Z,17.48
2022-10-13T15:07:42.514Z,16.50
2022-10-13T15:10:10.064Z,16.08
2022-10-13T15:12:38.379Z,16.83
2022-10-13T15:15:05.914Z,16.08
2022-10-13T15:17:33.838Z,15.57
2022-10-13T15:20:01.345Z,14.82
2022-10-13T15:22:28.566Z,15.68
2022-10-13T15:24:55.897Z,17.60
2022-10-13T15:27:23.727Z,17.05
2022-10-13T15:29:51.013Z,17.65
2022-10-13T15:32:19.135Z,18.58
2022-10-13T15:34:51.843Z,17.83
2022-10-13T15:37:19.102Z,18.67
2022-10-13T15:39:46.346Z,18.27
2022-10-13T15:42:13.574Z,19.13
2022-10-13T15:45:08.070Z,17.80
2022-10-13T15:47:28.144Z,18.63
2022-10-13T15:49:55.353Z,19.67
2022-10-13T15:52:22.981Z,19.30
2022-10-13T15:54:51.539Z,18.92
2022-10-13T15:57:18.835Z,19.80
2022-10-13T15:59:46.296Z,21.08
2022-10-13T16:02:13.657Z,21.02
2022-10-13T16:04:40.858Z,19.70
2022-10-13T16:07:08.066Z,21.10
2022-10-13T16:09:35.341Z,19.40
2022-10-13T16:15:00.308Z,19.15
2022-10-13T16:17:27.536Z,18.33
2022-10-13T16:19:55.050Z,17.92
2022-10-13T16:22:23.054Z,16.88
2022-10-13T16:24:50.504Z,17.92
2022-10-13T16:27:17.830Z,17.20
2022-10-13T16:29:45.125Z,18.63
2022-10-13T16:32:12.381Z,17.98
2022-10-13T16:34:40.701Z,18.27
2022-10-13T16:37:07.914Z,15.30
2022-10-13T16:39:39.924Z,17.40
2022-10-13T16:42:09.441Z,18.23
2022-10-13T16:44:36.846Z,17.92
2022-10-13T16:47:06.291Z,17.90
2022-10-13T16:49:34.733Z,15.93
2022-10-13T16:52:02.511Z,15.57
2022-10-13T16:54:29.878Z,20.05
2022-10-13T16:57:00.991Z,21.35
2022-10-13T16:59:31.709Z,23.73
2022-10-13T17:01:59.353Z,22.35
2022-10-13T17:04:26.740Z,19.67
2022-10-13T17:06:53.977Z,19.95
2022-10-13T17:09:21.218Z,15.57
2022-10-13T17:11:48.570Z,16.52
2022-10-13T17:14:15.984Z,14.27
2022-10-13T17:16:44.158Z,21.45
2022-10-13T17:19:12.203Z,19.92
2022-10-13T17:21:39.686Z,22.17
2022-10-13T17:24:09.128Z,22.45
2022-10-13T17:26:36.636Z,21.55
2022-10-13T17:31:31.036Z,19.13
